createdAt,value
2023-02-20T00:02:03.931Z,8.48
2023-02-20T00:04:31.472Z,8.59
2023-02-20T00:07:00.362Z,8.45
2023-02-20T00:09:28.203Z,8.41
2023-02-20T00:11:55.833Z,8.31
2023-02-20T00:14:23.547Z,8.42
2023-02-20T00:16:53.025Z,8.46
2023-02-20T00:19:20.742Z,8.18
2023-02-20T00:21:48.605Z,8.22
2023-02-20T00:24:17.853Z,8.13
2023-02-20T00:26:48.857Z,8.11
2023-02-20T00:29:17.940Z,7.88
2023-02-20T00:31:50.965Z,7.83
2023-02-20T00:34:18.541Z,7.81
2023-02-20T00:36:46.164Z,7.84
2023-02-20T00:39:13.737Z,7.75
2023-02-20T00:41:42.640Z,7.80
2023-02-20T00:44:11.780Z,7.85
2023-02-20T00:46:39.360Z,7.62
2023-02-20T00:49:07.076Z,7.42
2023-02-20T00:51:36.097Z,7.38
2023-02-20T00:54:03.848Z,7.55
2023-02-20T00:56:31.361Z,7.36
2023-02-20T00:59:00.206Z,7.33
2023-02-20T01:01:28.470Z,7.16
2023-02-20T01:03:56.111Z,7.09
2023-02-20T01:06:23.756Z,7.16
2023-02-20T01:08:51.450Z,7.13
2023-02-20T01:11:19.068Z,7.29
2023-02-20T01:13:46.608Z,7.13
2023-02-20T01:16:15.820Z,7.08
2023-02-20T01:18:43.513Z,7.10
2023-02-20T01:21:11.271Z,7.18
2023-02-20T01:23:38.911Z,7.14
2023-02-20T01:26:06.678Z,7.17
2023-02-20T01:28:34.180Z,7.24
2023-02-20T01:31:02.007Z,7.08
2023-02-20T01:33:31.392Z,7.06
2023-02-20T01:35:59.795Z,7.04
2023-02-20T01:38:27.488Z,7.06
2023-02-20T01:40:55.192Z,7.18
2023-02-20T01:43:22.794Z,7.16
2023-02-20T01:45:50.829Z,7.08
2023-02-20T01:48:21.597Z,6.92
2023-02-20T01:50:52.050Z,6.87
2023-02-20T01:53:21.506Z,6.89
2023-02-20T01:55:51.981Z,6.81
2023-02-20T01:58:22.386Z,6.85
2023-02-20T02:00:49.963Z,6.82
2023-02-20T02:03:20.634Z,6.78
2023-02-20T02:05:53.316Z,6.77
2023-02-20T02:08:22.813Z,6.79
2023-02-20T02:10:54.251Z,6.83
2023-02-20T02:13:21.974Z,6.87
2023-02-20T02:15:52.606Z,6.76
2023-02-20T02:18:38.163Z,6.89
2023-02-20T02:21:43.251Z,6.80
2023-02-20T02:24:52.268Z,6.98
2023-02-20T02:27:41.136Z,6.90
2023-02-20T02:30:38.841Z,6.94
2023-02-20T02:33:23.562Z,7.04
2023-02-20T02:36:14.598Z,6.95
2023-02-20T02:38:46.945Z,6.93
2023-02-20T02:41:20.808Z,6.92
2023-02-20T02:43:51.388Z,6.92
2023-02-20T02:46:23.788Z,6.80
2023-02-20T02:48:55.447Z,6.79
2023-02-20T02:51:26.677Z,6.81
2023-02-20T02:54:11.656Z,6.73
2023-02-20T02:56:40.941Z,6.63
2023-02-20T02:59:11.505Z,6.55
2023-02-20T03:01:42.531Z,6.75
2023-02-20T03:04:12.112Z,6.63
2023-02-20T03:06:44.272Z,6.55
2023-02-20T03:09:14.494Z,6.57
2023-02-20T03:11:42.601Z,6.56
2023-02-20T03:14:30.329Z,6.57
2023-02-20T03:17:01.067Z,6.61
2023-02-20T03:19:33.275Z,6.59
2023-02-20T03:22:03.730Z,6.71
2023-02-20T03:24:32.435Z,6.70
2023-02-20T03:27:00.498Z,6.66
2023-02-20T03:29:31.529Z,6.64
2023-02-20T03:32:19.627Z,6.66
2023-02-20T03:35:05.037Z,6.60
2023-02-20T03:37:53.658Z,6.54
2023-02-20T03:40:39.479Z,6.40
2023-02-20T03:43:24.295Z,6.48
2023-02-20T03:45:52.810Z,6.44
2023-02-20T03:48:23.884Z,6.34
2023-02-20T03:50:51.444Z,6.28
2023-02-20T03:53:20.329Z,6.30
2023-02-20T03:55:49.041Z,6.38
2023-02-20T03:58:19.464Z,6.29
2023-02-20T04:00:49.285Z,6.25
2023-02-20T04:03:19.530Z,6.16
2023-02-20T04:05:50.130Z,6.19
2023-02-20T04:08:21.434Z,6.20
2023-02-20T04:10:53.839Z,6.15
2023-02-20T04:13:21.417Z,6.09
2023-02-20T04:15:50.001Z,6.24
2023-02-20T04:18:19.417Z,6.23
2023-02-20T04:20:47.848Z,6.32
2023-02-20T04:23:16.681Z,6.17
2023-02-20T04:25:47.192Z,6.32
2023-02-20T04:28:15.808Z,6.32
2023-02-20T04:30:43.708Z,6.23
2023-02-20T04:33:12.486Z,6.32
2023-02-20T04:35:40.203Z,6.44
2023-02-20T04:38:08.188Z,6.25
2023-02-20T04:40:35.840Z,6.11
2023-02-20T04:43:04.737Z,6.14
2023-02-20T04:45:32.279Z,6.15
2023-02-20T04:47:59.832Z,5.95
2023-02-20T04:50:31.058Z,5.72
2023-02-20T04:52:59.271Z,5.83
2023-02-20T04:55:27.095Z,5.69
2023-02-20T04:57:56.120Z,5.72
2023-02-20T05:00:26.548Z,5.74
2023-02-20T05:02:54.319Z,5.82
2023-02-20T05:05:23.426Z,5.64
2023-02-20T05:07:55.754Z,5.77
2023-02-20T05:10:25.208Z,5.85
2023-02-20T05:12:52.739Z,5.59
2023-02-20T05:15:20.435Z,5.80
2023-02-20T05:17:49.357Z,5.53
2023-02-20T05:20:17.588Z,5.46
2023-02-20T05:22:45.310Z,5.48
2023-02-20T05:25:13.303Z,5.54
2023-02-20T05:27:41.046Z,5.35
2023-02-20T05:30:10.529Z,5.43
2023-02-20T05:32:38.619Z,5.22
2023-02-20T05:35:07.715Z,5.16
2023-02-20T05:37:35.223Z,5.23
2023-02-20T05:40:02.683Z,5.18
2023-02-20T05:42:30.138Z,5.20
2023-02-20T05:44:57.626Z,5.10
2023-02-20T05:47:25.132Z,5.20
2023-02-20T05:49:52.604Z,5.14
2023-02-20T05:52:21.408Z,5.25
2023-02-20T05:54:48.882Z,5.15
2023-02-20T05:57:16.711Z,5.13
2023-02-20T05:59:44.220Z,5.03
2023-02-20T06:02:11.816Z,5.20
2023-02-20T06:04:39.351Z,5.07
2023-02-20T06:07:10.167Z,5.02
2023-02-20T06:09:42.800Z,5.14
2023-02-20T06:12:10.395Z,5.16
2023-02-20T06:14:38.052Z,5.27
2023-02-20T06:17:05.531Z,5.05
2023-02-20T06:19:33.002Z,5.00
2023-02-20T06:22:01.612Z,5.04
2023-02-20T06:24:30.010Z,4.93
2023-02-20T06:26:58.855Z,4.99
2023-02-20T06:29:26.317Z,4.88
2023-02-20T06:31:54.292Z,5.01
2023-02-20T06:34:23.501Z,5.04
2023-02-20T06:36:50.969Z,4.98
2023-02-20T06:39:18.443Z,4.88
2023-02-20T06:41:45.924Z,4.83
2023-02-20T06:44:14.784Z,4.84
2023-02-20T06:46:42.635Z,4.88
2023-02-20T06:49:10.850Z,4.89
2023-02-20T06:51:40.178Z,4.94
2023-02-20T06:54:08.615Z,4.95
2023-02-20T06:56:36.900Z,4.96
2023-02-20T06:59:06.194Z,4.97
2023-02-20T07:01:40.740Z,4.88
2023-02-20T07:04:09.163Z,4.96
2023-02-20T07:06:37.717Z,5.04
2023-02-20T07:09:05.434Z,4.91
2023-02-20T07:11:32.968Z,4.81
2023-02-20T07:14:00.460Z,4.84
2023-02-20T07:16:28.489Z,5.08
2023-02-20T07:18:57.376Z,5.07
2023-02-20T07:21:24.863Z,5.18
2023-02-20T07:23:53.398Z,5.03
2023-02-20T07:26:21.799Z,5.29
2023-02-20T07:28:49.370Z,5.11
2023-02-20T07:31:16.929Z,5.11
2023-02-20T07:33:44.567Z,5.14
2023-02-20T07:36:14.458Z,5.17
2023-02-20T07:38:42.443Z,5.18
2023-02-20T07:41:10.716Z,5.23
2023-02-20T07:43:38.203Z,5.32
2023-02-20T07:46:05.923Z,5.36
2023-02-20T07:48:34.553Z,5.37
2023-02-20T07:51:02.059Z,5.46
2023-02-20T07:53:30.906Z,5.59
2023-02-20T07:55:58.400Z,5.67
2023-02-20T07:58:26.095Z,5.66
2023-02-20T08:00:54.108Z,5.87
2023-02-20T08:03:21.599Z,5.85
2023-02-20T08:05:50.066Z,5.85
2023-02-20T08:08:17.732Z,5.96
2023-02-20T08:10:47.095Z,6.14
2023-02-20T08:13:15.461Z,6.09
2023-02-20T08:15:46.122Z,6.15
2023-02-20T08:18:23.127Z,6.24
2023-02-20T08:20:52.663Z,6.19
2023-02-20T08:23:21.907Z,6.21
2023-02-20T08:25:51.884Z,6.29
2023-02-20T08:28:19.695Z,6.38
2023-02-20T08:30:47.509Z,6.34
2023-02-20T08:33:15.411Z,6.44
2023-02-20T08:35:43.407Z,6.45
2023-02-20T08:38:24.644Z,6.45
2023-02-20T08:40:53.549Z,6.51
2023-02-20T08:43:21.483Z,6.62
2023-02-20T08:45:49.098Z,6.74
2023-02-20T08:48:16.668Z,6.90
2023-02-20T08:50:44.180Z,6.98
2023-02-20T08:53:11.672Z,7.15
2023-02-20T08:55:39.147Z,7.24
2023-02-20T08:58:08.027Z,7.25
2023-02-20T09:00:35.828Z,7.31
2023-02-20T09:03:07.116Z,7.46
2023-02-20T09:05:35.583Z,7.43
2023-02-20T09:08:04.937Z,7.55
2023-02-20T09:10:32.454Z,7.66
2023-02-20T09:13:00.156Z,7.63
2023-02-20T09:15:29.166Z,7.75
2023-02-20T09:17:56.844Z,7.93
2023-02-20T09:20:24.473Z,8.07
2023-02-20T09:22:52.379Z,8.25
2023-02-20T09:25:20.342Z,8.42
2023-02-20T09:27:47.829Z,8.61
2023-02-20T09:30:19.633Z,8.80
2023-02-20T09:32:50.232Z,8.89
2023-02-20T09:35:19.831Z,8.74
2023-02-20T09:37:47.395Z,8.84
2023-02-20T09:40:15.865Z,8.96
2023-02-20T09:42:50.624Z,8.89
2023-02-20T09:45:21.036Z,8.89
2023-02-20T09:48:00.742Z,9.04
2023-02-20T09:50:33.902Z,9.17
2023-02-20T09:53:06.977Z,9.23
2023-02-20T09:55:37.525Z,9.14
2023-02-20T09:58:06.309Z,9.28
2023-02-20T10:00:35.264Z,9.35
2023-02-20T10:03:15.195Z,9.50
2023-02-20T10:05:43.388Z,9.58
2023-02-20T10:08:11.826Z,9.61
2023-02-20T10:10:39.546Z,9.43
2023-02-20T10:13:30.485Z,9.46
2023-02-20T10:16:01.874Z,9.57
2023-02-20T10:18:38.036Z,9.63
2023-02-20T10:21:12.714Z,9.74
2023-02-20T10:23:49.337Z,9.76
2023-02-20T10:26:23.854Z,9.66
2023-02-20T10:28:52.320Z,9.71
2023-02-20T10:31:30.458Z,9.79
2023-02-20T10:34:00.665Z,9.80
2023-02-20T10:36:31.868Z,9.95
2023-02-20T10:39:03.054Z,9.99
2023-02-20T10:41:34.131Z,10.06
2023-02-20T10:44:03.478Z,10.13
2023-02-20T10:46:48.144Z,10.19
2023-02-20T10:49:19.516Z,10.27
2023-02-20T10:51:48.876Z,10.33
2023-02-20T10:54:19.754Z,10.51
2023-02-20T10:56:53.950Z,10.58
2023-02-20T10:59:23.601Z,10.64
2023-02-20T11:01:55.575Z,10.70
2023-02-20T11:04:28.168Z,10.74
2023-02-20T11:06:58.075Z,10.81
2023-02-20T11:09:25.812Z,10.79
2023-02-20T11:11:54.230Z,10.91
2023-02-20T11:14:37.915Z,10.94
2023-02-20T11:17:10.553Z,11.02
2023-02-20T11:19:41.887Z,11.05
2023-02-20T11:22:10.159Z,11.13
2023-02-20T11:24:38.121Z,11.28
2023-02-20T11:27:11.518Z,11.35
2023-02-20T11:29:42.266Z,11.28
2023-02-20T11:32:23.423Z,11.40
2023-02-20T11:35:05.026Z,11.49
2023-02-20T11:37:37.863Z,11.58
2023-02-20T11:40:17.506Z,11.65
2023-02-20T11:42:45.385Z,11.71
2023-02-20T11:45:15.991Z,11.81
2023-02-20T11:47:43.930Z,11.81
2023-02-20T11:50:19.880Z,11.88
2023-02-20T11:53:04.738Z,12.04
2023-02-20T11:55:32.685Z,12.26
2023-02-20T11:58:00.403Z,12.17
2023-02-20T12:00:30.494Z,12.16
2023-02-20T12:03:05.767Z,12.12
2023-02-20T12:05:41.974Z,12.26
2023-02-20T12:08:44.803Z,12.24
2023-02-20T12:11:15.469Z,12.29
2023-02-20T12:13:45.184Z,12.37
2023-02-20T12:16:31.082Z,12.43
2023-02-20T12:19:04.443Z,12.41
2023-02-20T12:21:44.543Z,12.49
2023-02-20T12:24:28.248Z,12.57
2023-02-20T12:26:58.308Z,12.49
2023-02-20T12:29:36.969Z,12.54
2023-02-20T12:32:13.634Z,12.67
2023-02-20T12:34:54.817Z,12.61
2023-02-20T12:37:32.027Z,12.64
2023-02-20T12:40:06.555Z,12.89
2023-02-20T12:42:42.410Z,12.85
2023-02-20T12:45:17.886Z,12.81
2023-02-20T12:47:46.718Z,12.84
2023-02-20T12:50:32.963Z,12.80
2023-02-20T12:53:14.922Z,12.82
2023-02-20T12:55:49.996Z,12.78
2023-02-20T12:58:25.637Z,12.91
2023-02-20T13:00:54.511Z,12.96
2023-02-20T13:03:25.282Z,13.02
2023-02-20T13:05:53.926Z,13.01
2023-02-20T13:08:28.043Z,12.78
2023-02-20T13:10:59.089Z,12.88
2023-02-20T13:13:29.983Z,12.86
2023-02-20T13:16:00.092Z,12.90
2023-02-20T13:18:35.666Z,12.83
2023-02-20T13:21:05.103Z,12.83
2023-02-20T13:23:35.888Z,12.96
2023-02-20T13:26:04.260Z,13.11
2023-02-20T13:28:42.789Z,13.02
2023-02-20T13:31:19.409Z,13.09
2023-02-20T13:33:49.076Z,13.26
2023-02-20T13:36:43.714Z,13.18
2023-02-20T13:39:43.396Z,13.29
2023-02-20T13:42:30.298Z,13.22
2023-02-20T13:44:59.620Z,13.25
2023-02-20T13:47:38.459Z,13.26
2023-02-20T13:50:30.121Z,13.19
2023-02-20T13:52:59.271Z,13.26
2023-02-20T13:55:28.998Z,13.11
2023-02-20T13:57:58.522Z,13.01
2023-02-20T14:00:29.497Z,13.01
2023-02-20T14:02:57.571Z,13.10
2023-02-20T14:05:27.349Z,13.25
2023-02-20T14:07:54.894Z,13.20
2023-02-20T14:10:28.244Z,13.11
2023-02-20T14:13:02.099Z,13.19
2023-02-20T14:15:31.620Z,13.20
2023-02-20T14:17:59.844Z,13.33
2023-02-20T14:20:34.554Z,13.19
2023-02-20T14:23:10.684Z,13.28
2023-02-20T14:25:41.194Z,13.25
2023-02-20T14:28:15.498Z,13.27
2023-02-20T14:30:43.612Z,13.23
2023-02-20T14:33:21.491Z,13.38
2023-02-20T14:36:06.570Z,13.46
2023-02-20T14:38:44.993Z,13.36
2023-02-20T14:41:18.560Z,13.30
2023-02-20T14:43:46.154Z,13.30
2023-02-20T14:46:25.617Z,13.36
2023-02-20T14:49:05.930Z,13.38
2023-02-20T14:51:33.460Z,13.43
2023-02-20T14:54:02.735Z,13.32
2023-02-20T14:56:34.148Z,13.30
2023-02-20T14:59:16.953Z,13.35
2023-02-20T15:01:44.499Z,13.33
2023-02-20T15:04:14.652Z,13.35
2023-02-20T15:06:44.631Z,13.37
2023-02-20T15:09:22.266Z,13.30
2023-02-20T15:11:53.342Z,13.29
2023-02-20T15:14:23.293Z,13.24
2023-02-20T15:17:07.357Z,13.19
2023-02-20T15:19:38.250Z,13.25
2023-02-20T15:22:06.246Z,13.30
2023-02-20T15:24:39.489Z,13.34
2023-02-20T15:27:16.812Z,13.29
2023-02-20T15:29:45.083Z,13.21
2023-02-20T15:32:19.039Z,13.24
2023-02-20T15:34:51.637Z,13.25
2023-02-20T15:37:27.157Z,13.26
2023-02-20T15:40:10.082Z,13.20
2023-02-20T15:42:38.959Z,13.12
2023-02-20T15:45:07.129Z,13.11
2023-02-20T15:47:34.585Z,13.03
2023-02-20T15:50:02.162Z,13.06
2023-02-20T15:52:29.852Z,12.98
2023-02-20T15:54:58.351Z,12.93
2023-02-20T15:57:25.882Z,13.07
2023-02-20T15:59:55.794Z,12.93
2023-02-20T16:02:24.617Z,12.93
2023-02-20T16:04:52.990Z,12.91
2023-02-20T16:07:21.264Z,12.95
2023-02-20T16:09:48.813Z,12.86
2023-02-20T16:12:18.058Z,12.78
2023-02-20T16:14:53.589Z,12.74
2023-02-20T16:17:25.643Z,12.78
2023-02-20T16:19:53.356Z,12.74
2023-02-20T16:22:20.922Z,12.72
2023-02-20T16:24:49.144Z,12.57
2023-02-20T16:27:24.759Z,12.60
2023-02-20T16:29:53.569Z,12.50
2023-02-20T16:32:24.323Z,12.30
2023-02-20T16:34:52.375Z,12.36
2023-02-20T16:37:20.659Z,12.38
2023-02-20T16:39:48.681Z,12.28
2023-02-20T16:42:33.931Z,12.12
2023-02-20T16:45:04.974Z,11.99
2023-02-20T16:47:34.144Z,11.97
2023-02-20T16:50:04.785Z,11.99
2023-02-20T16:52:34.358Z,11.84
2023-02-20T16:55:02.930Z,11.95
2023-02-20T16:57:31.017Z,11.87
2023-02-20T17:00:00.503Z,11.87
2023-02-20T17:02:31.470Z,11.83
2023-02-20T17:05:01.651Z,11.86
2023-02-20T17:07:31.110Z,11.77
2023-02-20T17:09:59.460Z,11.65
2023-02-20T17:12:27.909Z,11.62
2023-02-20T17:14:59.323Z,11.62
2023-02-20T17:17:27.764Z,11.55
2023-02-20T17:19:58.565Z,11.58
2023-02-20T17:22:34.743Z,11.49
2023-02-20T17:25:05.985Z,11.39
2023-02-20T17:27:35.281Z,11.40
2023-02-20T17:30:11.701Z,11.46
2023-02-20T17:32:41.248Z,11.29
2023-02-20T17:35:09.869Z,11.40
2023-02-20T17:37:39.055Z,11.56
2023-02-20T17:40:07.895Z,11.37
2023-02-20T17:42:35.741Z,11.14
2023-02-20T17:45:03.905Z,11.18
2023-02-20T17:47:33.197Z,11.04
2023-02-20T17:50:01.053Z,11.01
2023-02-20T17:52:30.601Z,11.05
2023-02-20T17:55:00.410Z,10.95
2023-02-20T17:57:28.598Z,10.90
2023-02-20T17:59:56.601Z,10.96
2023-02-20T18:02:28.607Z,10.94
2023-02-20T18:04:56.394Z,10.78
2023-02-20T18:07:24.326Z,10.86
2023-02-20T18:09:52.247Z,10.85
2023-02-20T18:12:21.228Z,10.88
2023-02-20T18:14:49.012Z,10.77
2023-02-20T18:17:16.987Z,10.74
2023-02-20T18:19:44.829Z,10.66
2023-02-20T18:22:12.649Z,10.71
2023-02-20T18:24:40.452Z,10.81
2023-02-20T18:27:10.171Z,10.74
2023-02-20T18:29:40.030Z,10.54
2023-02-20T18:32:10.293Z,10.47
2023-02-20T18:34:38.063Z,10.58
2023-02-20T18:37:05.745Z,10.54
2023-02-20T18:39:33.565Z,10.53
2023-02-20T18:42:01.150Z,10.41
2023-02-20T18:44:28.676Z,10.25
2023-02-20T18:46:58.183Z,10.17
2023-02-20T18:49:25.724Z,10.30
2023-02-20T18:51:53.200Z,10.22
2023-02-20T18:54:24.429Z,10.22
2023-02-20T18:56:52.944Z,10.17
2023-02-20T18:59:22.853Z,10.11
2023-02-20T19:01:50.530Z,10.13
2023-02-20T19:04:19.457Z,10.19
2023-02-20T19:06:48.561Z,10.14
2023-02-20T19:09:18.858Z,10.12
2023-02-20T19:11:53.830Z,10.06
2023-02-20T19:14:22.226Z,9.97
2023-02-20T19:16:50.136Z,10.04
2023-02-20T19:19:23.978Z,10.12
2023-02-20T19:21:52.747Z,10.10
2023-02-20T19:24:21.544Z,10.03
2023-02-20T19:26:49.529Z,10.02
2023-02-20T19:29:17.536Z,9.90
2023-02-20T19:31:45.620Z,9.85
2023-02-20T19:34:15.364Z,9.75
2023-02-20T19:36:44.628Z,9.73
2023-02-20T19:39:14.199Z,9.73
2023-02-20T19:41:42.334Z,9.69
2023-02-20T19:44:15.900Z,9.75
2023-02-20T19:46:44.018Z,9.74
2023-02-20T19:49:12.978Z,9.56
2023-02-20T19:51:48.061Z,9.49
2023-02-20T19:54:16.920Z,9.42
2023-02-20T19:56:53.122Z,9.41
2023-02-20T19:59:21.173Z,9.33
2023-02-20T20:01:52.790Z,9.27
2023-02-20T20:04:22.578Z,9.26
2023-02-20T20:06:52.361Z,9.26
2023-02-20T20:09:34.975Z,9.13
2023-02-20T20:12:03.285Z,9.06
2023-02-20T20:14:32.837Z,9.01
2023-02-20T20:17:02.723Z,9.05
2023-02-20T20:19:30.546Z,8.91
2023-02-20T20:21:59.673Z,8.83
2023-02-20T20:24:27.512Z,8.80
2023-02-20T20:26:55.516Z,8.73
2023-02-20T20:29:23.900Z,8.69
2023-02-20T20:31:51.895Z,8.65
2023-02-20T20:34:20.667Z,8.78
2023-02-20T20:36:48.325Z,8.65
2023-02-20T20:39:17.657Z,8.60
2023-02-20T20:41:45.977Z,8.59
2023-02-20T20:44:13.857Z,8.46
2023-02-20T20:46:41.583Z,8.18
2023-02-20T20:49:09.368Z,7.75
2023-02-20T20:51:37.088Z,7.77
2023-02-20T20:54:07.223Z,7.84
2023-02-20T20:56:36.542Z,7.79
2023-02-20T20:59:04.722Z,7.81
2023-02-20T21:01:32.618Z,7.60
2023-02-20T21:04:00.435Z,7.51
2023-02-20T21:06:28.265Z,7.63
2023-02-20T21:08:56.277Z,7.57
2023-02-20T21:11:23.988Z,7.23
2023-02-20T21:13:55.258Z,7.14
2023-02-20T21:16:23.459Z,7.18
2023-02-20T21:18:51.182Z,7.25
2023-02-20T21:21:18.930Z,7.29
2023-02-20T21:24:02.697Z,7.17
2023-02-20T21:26:30.333Z,7.00
2023-02-20T21:28:59.296Z,7.02
2023-02-20T21:31:28.620Z,7.17
2023-02-20T21:33:56.558Z,7.14
2023-02-20T21:36:28.422Z,7.27
2023-02-20T21:39:03.999Z,6.99
2023-02-20T21:41:51.873Z,7.18
2023-02-20T21:44:30.476Z,7.28
2023-02-20T21:47:02.497Z,7.42
2023-02-20T21:49:32.120Z,7.40
2023-02-20T21:52:03.541Z,7.39
2023-02-20T21:54:37.291Z,7.42
2023-02-20T21:57:05.250Z,7.40
2023-02-20T22:00:20.190Z,7.38
2023-02-20T22:02:21.633Z,7.42
2023-02-20T22:04:48.374Z,7.47
2023-02-20T22:07:33.987Z,7.44
2023-02-20T22:10:19.782Z,7.55
2023-02-20T22:13:04.818Z,7.50
2023-02-20T22:15:53.753Z,7.25
2023-02-20T22:18:38.933Z,7.37
2023-02-20T22:21:24.181Z,7.33
2023-02-20T22:27:11.160Z,6.88
2023-02-20T22:29:58.417Z,6.94
2023-02-20T22:32:45.082Z,7.09
2023-02-20T22:35:35.132Z,7.02
2023-02-20T22:38:24.467Z,6.86
2023-02-20T22:41:13.474Z,7.12
2023-02-20T22:44:00.012Z,6.94
2023-02-20T22:46:46.811Z,7.00
2023-02-20T22:49:34.852Z,6.84
2023-02-20T22:52:21.882Z,6.50
2023-02-20T22:55:10.209Z,5.98
2023-02-20T22:57:56.789Z,5.97
2023-02-20T23:00:49.819Z,6.34
2023-02-20T23:03:36.776Z,6.34
2023-02-20T23:06:24.042Z,6.45
2023-02-20T23:09:12.276Z,6.48
2023-02-20T23:11:59.020Z,6.54
2023-02-20T23:14:45.194Z,6.54
2023-02-20T23:18:24.600Z,6.46
2023-02-20T23:20:43.627Z,6.66
2023-02-20T23:23:32.084Z,6.31
2023-02-20T23:26:17.716Z,6.24
2023-02-20T23:29:03.263Z,6.15
2023-02-20T23:31:52.829Z,6.06
2023-02-20T23:34:38.054Z,6.08
2023-02-20T23:37:23.391Z,5.77
2023-02-20T23:40:10.155Z,5.57
2023-02-20T23:42:55.339Z,5.87
2023-02-20T23:45:40.735Z,5.97
2023-02-20T23:48:25.910Z,5.32
2023-02-20T23:51:11.163Z,4.98
2023-02-20T23:53:57.039Z,5.47
2023-02-20T23:56:44.275Z,5.79
2023-02-20T23:59:29.508Z,5.93
